Time;durP1;ratioP1;P1;durP2;ratioP2;P2;SDS_P1;SDS_P2;PMS_P1;PMS_P2;Temp;Humidity;BMP_temperature;BMP_pressure;BME280_temperature;BME280_humidity;BME280_pressure;Samples;Min_cycle;Max_cycle;Signal;HPM_P1;HPM_P2
2023/03/10 00:00:27;;;;;;;;;;;25.70;95.60;;;;;;5045247;28;19977;-68
2023/03/10 00:02:54;;;;;;;;;;;25.90;95.60;;;;;;5045388;28;19971;-68
2023/03/10 00:05:20;;;;;;;;;;;26.10;95.40;;;;;;5045214;28;20710;-70
2023/03/10 00:07:49;;;;;;;;;;;26.30;94.80;;;;;;5045441;28;20408;-70
2023/03/10 00:10:16;;;;;;;;;;;26.30;94.80;;;;;;5046516;28;19935;-69
2023/03/10 00:12:42;;;;;;;;;;;26.40;95.00;;;;;;5046930;28;20444;-69
2023/03/10 00:15:10;;;;;;;;;;;26.70;94.20;;;;;;5051719;28;19900;-68
2023/03/10 00:17:36;;;;;;;;;;;26.60;93.60;;;;;;5053769;28;19909;-69
2023/03/10 00:20:10;;;;;;;;;;;26.50;94.00;;;;;;5048599;28;19916;-73
2023/03/10 00:22:38;;;;;;;;;;;26.80;93.60;;;;;;5044318;28;20366;-69
2023/03/10 00:25:05;;;;;;;;;;;26.90;93.40;;;;;;5045481;28;19909;-66
2023/03/10 00:27:32;;;;;;;;;;;26.90;93.10;;;;;;5044543;28;19931;-67
2023/03/10 00:29:59;;;;;;;;;;;26.90;93.10;;;;;;5045077;28;20262;-68
2023/03/10 00:32:25;;;;;;;;;;;26.60;93.50;;;;;;5044932;28;19920;-67
2023/03/10 00:34:52;;;;;;;;;;;26.70;93.30;;;;;;5044491;28;20404;-74
2023/03/10 00:37:19;;;;;;;;;;;26.90;93.30;;;;;;5045210;28;19908;-67
2023/03/10 00:39:49;;;;;;;;;;;27.20;93.40;;;;;;5044401;28;19962;-70
2023/03/10 00:42:16;;;;;;;;;;;27.20;92.80;;;;;;5045158;28;20362;-68
2023/03/10 00:44:42;;;;;;;;;;;27.10;92.50;;;;;;5043805;28;19916;-67
2023/03/10 00:47:09;;;;;;;;;;;27.10;92.70;;;;;;5044911;28;20628;-67
2023/03/10 00:49:36;;;;;;;;;;;26.80;92.80;;;;;;5044489;28;19909;-67
2023/03/10 00:52:02;;;;;;;;;;;27.00;93.20;;;;;;5044936;28;19917;-68
2023/03/10 00:54:29;;;;;;;;;;;27.30;92.40;;;;;;5042873;28;19912;-68
2023/03/10 00:56:56;;;;;;;;;;;27.60;92.50;;;;;;5044160;28;19912;-67
2023/03/10 00:59:22;;;;;;;;;;;27.70;92.40;;;;;;5044865;28;20284;-74
2023/03/10 01:01:49;;;;;;;;;;;27.70;91.90;;;;;;5044338;28;19909;-71
2023/03/10 01:04:17;;;;;;;;;;;27.60;92.10;;;;;;5044484;28;19913;-69
2023/03/10 01:06:46;;;;;;;;;;;27.40;92.90;;;;;;5043254;28;20370;-71
2023/03/10 01:09:13;;;;;;;;;;;27.50;93.10;;;;;;5044282;28;19916;-68
2023/03/10 01:11:40;;;;;;;;;;;27.70;92.90;;;;;;5043671;28;19924;-68
2023/03/10 01:14:07;;;;;;;;;;;27.90;92.40;;;;;;5043852;28;19920;-68
2023/03/10 01:16:34;;;;;;;;;;;27.90;92.60;;;;;;5043792;28;19905;-67
2023/03/10 01:19:00;;;;;;;;;;;27.80;92.60;;;;;;5043739;28;19971;-68
2023/03/10 01:21:29;;;;;;;;;;;27.70;92.20;;;;;;5044232;28;20015;-67
2023/03/10 01:23:56;;;;;;;;;;;27.10;93.30;;;;;;5043911;28;19954;-74
2023/03/10 01:26:22;;;;;;;;;;;27.20;93.10;;;;;;5044777;28;19920;-75
2023/03/10 01:28:49;;;;;;;;;;;27.30;93.50;;;;;;5043340;28;19905;-70
2023/03/10 01:31:16;;;;;;;;;;;27.70;93.20;;;;;;5044257;28;19968;-67
2023/03/10 01:33:44;;;;;;;;;;;28.00;93.10;;;;;;5043806;28;20054;-73
2023/03/10 01:36:14;;;;;;;;;;;28.10;92.30;;;;;;5044293;28;20011;-74
2023/03/10 01:38:41;;;;;;;;;;;28.20;92.10;;;;;;5043866;28;20301;-68
2023/03/10 01:41:08;;;;;;;;;;;28.00;91.90;;;;;;5043502;28;19917;-67
2023/03/10 01:43:38;;;;;;;;;;;27.70;92.30;;;;;;5043411;28;20012;-69
2023/03/10 01:46:25;;;;;;;;;;;27.40;93.30;;;;;;5043032;28;19920;-68
2023/03/10 01:48:52;;;;;;;;;;;27.60;93.40;;;;;;5045430;28;19913;-71
2023/03/10 01:51:19;;;;;;;;;;;28.00;93.10;;;;;;5043516;28;19936;-68
2023/03/10 01:53:46;;;;;;;;;;;28.30;92.90;;;;;;5043005;28;19955;-72
2023/03/10 01:56:13;;;;;;;;;;;28.50;92.20;;;;;;5043459;28;19963;-73
2023/03/10 01:58:42;;;;;;;;;;;28.60;91.80;;;;;;5042866;28;19908;-73
2023/03/10 02:01:09;;;;;;;;;;;27.90;92.30;;;;;;5043364;28;19909;-68
2023/03/10 02:03:39;;;;;;;;;;;27.50;93.10;;;;;;5043006;28;20263;-68
2023/03/10 02:06:08;;;;;;;;;;;27.50;93.30;;;;;;5042429;28;19912;-73
2023/03/10 02:08:38;;;;;;;;;;;28.00;93.30;;;;;;5042009;28;19932;-68
2023/03/10 02:11:05;;;;;;;;;;;28.70;92.90;;;;;;5041983;28;20003;-66
2023/03/10 02:13:31;;;;;;;;;;;29.00;91.80;;;;;;5043236;28;19909;-68
2023/03/10 02:15:58;;;;;;;;;;;28.60;91.40;;;;;;5042574;28;19909;-66
2023/03/10 02:18:25;;;;;;;;;;;28.00;92.10;;;;;;5043142;28;20431;-67
2023/03/10 02:20:54;;;;;;;;;;;27.80;92.50;;;;;;5042622;28;20381;-67
2023/03/10 02:23:39;;;;;;;;;;;28.20;92.70;;;;;;5043599;28;19909;-66
2023/03/10 02:26:25;;;;;;;;;;;28.70;92.10;;;;;;5042596;28;20045;-68
2023/03/10 02:28:53;;;;;;;;;;;28.90;91.50;;;;;;5042304;28;19913;-74
2023/03/10 02:31:21;;;;;;;;;;;28.70;91.50;;;;;;5043362;28;19916;-68
2023/03/10 02:33:49;;;;;;;;;;;28.70;91.80;;;;;;5042098;28;19934;-68
2023/03/10 02:36:17;;;;;;;;;;;28.70;91.40;;;;;;5043017;28;19919;-75
2023/03/10 02:38:44;;;;;;;;;;;29.00;91.50;;;;;;5041140;28;19983;-67
2023/03/10 02:41:28;;;;;;;;;;;29.30;91.10;;;;;;5043094;28;20316;-68
2023/03/10 02:43:55;;;;;;;;;;;29.30;90.50;;;;;;5041609;28;19926;-73
2023/03/10 02:46:22;;;;;;;;;;;28.90;91.40;;;;;;5043066;28;20369;-70
2023/03/10 02:48:49;;;;;;;;;;;29.00;91.40;;;;;;5041848;28;20255;-68
2023/03/10 02:51:18;;;;;;;;;;;29.20;91.30;;;;;;5042529;28;19951;-72
2023/03/10 02:53:45;;;;;;;;;;;29.90;91.40;;;;;;5041568;28;19908;-72
2023/03/10 02:56:12;;;;;;;;;;;30.40;90.70;;;;;;5042992;28;20603;-73
2023/03/10 02:58:38;;;;;;;;;;;30.80;88.90;;;;;;5042615;28;19908;-71
2023/03/10 03:01:05;;;;;;;;;;;31.20;88.00;;;;;;5042050;28;19967;-74
2023/03/10 03:03:32;;;;;;;;;;;31.50;87.60;;;;;;5042356;28;19912;-69
2023/03/10 03:05:59;;;;;;;;;;;32.10;84.40;;;;;;5041480;28;19909;-72
2023/03/10 03:08:26;;;;;;;;;;;32.60;84.10;;;;;;5042800;28;19916;-69
2023/03/10 03:10:53;;;;;;;;;;;32.90;83.10;;;;;;5041302;28;20016;-68
2023/03/10 03:13:20;;;;;;;;;;;33.80;80.50;;;;;;5042361;28;20590;-66
2023/03/10 03:15:47;;;;;;;;;;;34.20;78.60;;;;;;5042023;28;20369;-67
2023/03/10 03:18:14;;;;;;;;;;;34.30;77.80;;;;;;5041776;28;19909;-69
2023/03/10 03:20:40;;;;;;;;;;;34.30;79.50;;;;;;5042550;28;19909;-70
2023/03/10 03:23:07;;;;;;;;;;;34.70;76.90;;;;;;5041307;28;19986;-70
2023/03/10 03:25:35;;;;;;;;;;;35.70;76.00;;;;;;5042494;28;20628;-68
2023/03/10 03:28:02;;;;;;;;;;;37.10;72.80;;;;;;5041452;28;19913;-71
2023/03/10 03:30:29;;;;;;;;;;;36.70;73.20;;;;;;5042537;28;19916;-69
2023/03/10 03:32:56;;;;;;;;;;;37.00;71.70;;;;;;5041323;28;19916;-68
2023/03/10 03:35:24;;;;;;;;;;;37.80;73.10;;;;;;5041764;28;20019;-69
2023/03/10 03:37:52;;;;;;;;;;;38.60;70.90;;;;;;5042158;28;19909;-72
2023/03/10 03:40:19;;;;;;;;;;;39.50;69.00;;;;;;5042047;28;20428;-67
2023/03/10 03:42:47;;;;;;;;;;;39.60;67.50;;;;;;5042484;28;19931;-68
2023/03/10 03:45:14;;;;;;;;;;;39.20;66.00;;;;;;5041121;28;19912;-67
2023/03/10 03:47:41;;;;;;;;;;;38.50;66.60;;;;;;5042602;28;19915;-67
2023/03/10 03:50:08;;;;;;;;;;;37.90;67.40;;;;;;5041977;28;19935;-67
2023/03/10 03:52:35;;;;;;;;;;;37.70;68.30;;;;;;5042391;28;19913;-72
2023/03/10 03:55:01;;;;;;;;;;;36.70;67.70;;;;;;5042080;28;19967;-66
2023/03/10 03:57:28;;;;;;;;;;;36.70;69.00;;;;;;5041274;28;19931;-67
2023/03/10 03:59:55;;;;;;;;;;;36.60;69.30;;;;;;5041821;28;19919;-67
2023/03/10 04:02:21;;;;;;;;;;;37.30;68.70;;;;;;5041464;28;19909;-67
2023/03/10 04:04:48;;;;;;;;;;;37.70;68.20;;;;;;5043901;28;19916;-67
2023/03/10 04:07:15;;;;;;;;;;;36.80;68.00;;;;;;5044761;28;20606;-68
2023/03/10 04:09:42;;;;;;;;;;;35.00;71.60;;;;;;5041874;28;19916;-73
2023/03/10 04:12:09;;;;;;;;;;;36.60;69.00;;;;;;5041375;28;20370;-70
2023/03/10 04:14:36;;;;;;;;;;;37.10;69.80;;;;;;5040949;28;19915;-69
2023/03/10 04:17:04;;;;;;;;;;;38.20;67.20;;;;;;5032815;28;20046;-69
2023/03/10 04:19:30;;;;;;;;;;;37.40;67.50;;;;;;5034046;28;19920;-68
2023/03/10 04:21:57;;;;;;;;;;;37.30;67.40;;;;;;5033023;28;19916;-70
2023/03/10 04:24:24;;;;;;;;;;;37.10;68.30;;;;;;5037152;28;19921;-68
2023/03/10 04:26:50;;;;;;;;;;;36.40;68.90;;;;;;5048756;28;19961;-69
2023/03/10 04:29:17;;;;;;;;;;;37.30;68.80;;;;;;5042148;28;19995;-68
2023/03/10 04:31:44;;;;;;;;;;;38.50;67.00;;;;;;5038366;28;19927;-71
2023/03/10 04:34:10;;;;;;;;;;;38.50;65.40;;;;;;5044017;28;19975;-70
2023/03/10 04:36:37;;;;;;;;;;;37.80;65.50;;;;;;5046549;28;20047;-68
2023/03/10 04:39:04;;;;;;;;;;;37.30;66.60;;;;;;5043870;28;19928;-70
2023/03/10 04:41:30;;;;;;;;;;;37.90;67.60;;;;;;5039887;28;19912;-69
2023/03/10 04:43:58;;;;;;;;;;;38.30;66.80;;;;;;5042895;28;19955;-70
2023/03/10 04:46:24;;;;;;;;;;;38.50;65.00;;;;;;5042241;28;19913;-68
2023/03/10 04:48:51;;;;;;;;;;;37.80;65.50;;;;;;5043695;28;19917;-71
2023/03/10 04:51:18;;;;;;;;;;;37.10;67.50;;;;;;5043043;28;20404;-67
2023/03/10 04:53:45;;;;;;;;;;;38.30;66.40;;;;;;5044797;28;19915;-68
2023/03/10 04:56:14;;;;;;;;;;;38.60;65.20;;;;;;5046299;28;19909;-67
2023/03/10 04:58:40;;;;;;;;;;;37.90;66.30;;;;;;5043564;28;20428;-68
2023/03/10 05:01:08;;;;;;;;;;;38.00;67.30;;;;;;5042607;28;20193;-71
2023/03/10 05:03:35;;;;;;;;;;;39.20;64.40;;;;;;5042642;28;20041;-68
2023/03/10 05:06:02;;;;;;;;;;;38.30;65.30;;;;;;5048628;28;20269;-68
2023/03/10 05:08:29;;;;;;;;;;;36.90;67.70;;;;;;5051476;28;19910;-69
2023/03/10 05:10:56;;;;;;;;;;;36.90;67.00;;;;;;5043150;28;19956;-71
2023/03/10 05:13:22;;;;;;;;;;;35.80;68.90;;;;;;5041955;28;19916;-71
2023/03/10 05:15:49;;;;;;;;;;;34.80;71.80;;;;;;5044891;28;20328;-68
2023/03/10 05:18:16;;;;;;;;;;;34.30;71.10;;;;;;5046420;28;19905;-69
2023/03/10 05:20:42;;;;;;;;;;;34.00;72.20;;;;;;5042109;28;20553;-73
2023/03/10 05:23:09;;;;;;;;;;;33.80;71.90;;;;;;5041744;28;19992;-72
2023/03/10 05:25:35;;;;;;;;;;;34.00;71.70;;;;;;5042517;28;20361;-68
2023/03/10 05:28:02;;;;;;;;;;;33.70;72.10;;;;;;5062991;28;19908;-70
2023/03/10 05:30:29;;;;;;;;;;;34.40;71.20;;;;;;5051505;28;19923;-73
2023/03/10 05:32:55;;;;;;;;;;;34.60;70.80;;;;;;5042859;28;19982;-71
2023/03/10 05:35:22;;;;;;;;;;;35.50;70.40;;;;;;5039975;28;19920;-66
2023/03/10 05:37:49;;;;;;;;;;;36.30;69.10;;;;;;5042660;28;19923;-68
2023/03/10 05:40:19;;;;;;;;;;;37.80;66.90;;;;;;5042190;28;19913;-70
2023/03/10 05:42:46;;;;;;;;;;;37.50;67.20;;;;;;5041492;28;19909;-73
2023/03/10 05:45:13;;;;;;;;;;;37.50;65.60;;;;;;5043612;28;19916;-67
2023/03/10 05:47:40;;;;;;;;;;;36.90;68.20;;;;;;5041681;28;19923;-72
2023/03/10 05:50:07;;;;;;;;;;;37.50;66.10;;;;;;5043074;28;19916;-73
2023/03/10 05:52:37;;;;;;;;;;;36.70;67.20;;;;;;5042123;28;19916;-72
2023/03/10 05:55:04;;;;;;;;;;;36.50;67.50;;;;;;5043341;28;20006;-68
2023/03/10 05:57:31;;;;;;;;;;;37.30;67.00;;;;;;5042221;28;19916;-72
2023/03/10 05:59:58;;;;;;;;;;;37.80;67.20;;;;;;5041053;28;20074;-66
2023/03/10 06:02:24;;;;;;;;;;;38.10;65.20;;;;;;5042053;28;19908;-70
2023/03/10 06:04:51;;;;;;;;;;;37.00;66.60;;;;;;5042130;28;19940;-73
2023/03/10 06:07:18;;;;;;;;;;;36.00;68.00;;;;;;5043253;28;20446;-68
2023/03/10 06:09:44;;;;;;;;;;;35.80;69.70;;;;;;5040585;28;19966;-69
2023/03/10 06:12:11;;;;;;;;;;;36.80;66.60;;;;;;5042985;28;19924;-68
2023/03/10 06:14:38;;;;;;;;;;;36.70;67.40;;;;;;5042143;28;19916;-68
2023/03/10 06:17:04;;;;;;;;;;;37.20;66.60;;;;;;5041070;28;19919;-67
2023/03/10 06:19:31;;;;;;;;;;;37.30;65.80;;;;;;5042482;28;19947;-68
2023/03/10 06:21:57;;;;;;;;;;;36.40;66.80;;;;;;5043121;28;19919;-69
2023/03/10 06:24:24;;;;;;;;;;;36.10;67.30;;;;;;5043249;28;20281;-70
2023/03/10 06:26:51;;;;;;;;;;;36.00;69.20;;;;;;5041657;28;19959;-68
2023/03/10 06:29:17;;;;;;;;;;;36.70;66.80;;;;;;5043101;28;20028;-75
2023/03/10 06:31:44;;;;;;;;;;;37.10;66.00;;;;;;5041376;28;20301;-74
2023/03/10 06:34:10;;;;;;;;;;;36.30;67.40;;;;;;5043396;28;19966;-73
2023/03/10 06:36:39;;;;;;;;;;;35.90;67.40;;;;;;5041403;28;19936;-77
2023/03/10 06:39:06;;;;;;;;;;;34.80;68.90;;;;;;5042668;28;19921;-69
2023/03/10 06:41:34;;;;;;;;;;;34.50;69.70;;;;;;5042516;28;19943;-68
2023/03/10 06:44:01;;;;;;;;;;;34.00;71.60;;;;;;5022798;28;19916;-69
2023/03/10 06:46:28;;;;;;;;;;;34.10;72.00;;;;;;5023381;28;20362;-76
2023/03/10 06:48:54;;;;;;;;;;;35.50;70.10;;;;;;5021227;28;19913;-69
2023/03/10 06:51:21;;;;;;;;;;;36.10;68.70;;;;;;5037807;28;19928;-70
2023/03/10 06:53:48;;;;;;;;;;;36.50;68.60;;;;;;5041448;28;19908;-70
2023/03/10 06:56:17;;;;;;;;;;;35.50;68.60;;;;;;5043690;28;20073;-68
2023/03/10 06:58:44;;;;;;;;;;;35.40;69.00;;;;;;5042652;28;19920;-75
2023/03/10 07:01:20;;;;;;;;;;;35.30;68.90;;;;;;5043308;28;19963;-69
2023/03/10 07:03:47;;;;;;;;;;;35.30;70.10;;;;;;5043239;28;19924;-76
2023/03/10 07:06:13;;;;;;;;;;;35.00;70.20;;;;;;5044901;28;19909;-73
2023/03/10 07:08:40;;;;;;;;;;;34.00;70.70;;;;;;5041870;28;19913;-73
2023/03/10 07:11:07;;;;;;;;;;;33.80;71.20;;;;;;5044225;28;19920;-71
2023/03/10 07:13:33;;;;;;;;;;;33.60;71.50;;;;;;5043560;28;20019;-75
2023/03/10 07:16:00;;;;;;;;;;;32.70;72.60;;;;;;5042623;28;19939;-69
2023/03/10 07:18:28;;;;;;;;;;;32.40;73.40;;;;;;5042398;28;20229;-73
2023/03/10 07:20:55;;;;;;;;;;;32.30;73.80;;;;;;5041151;28;19921;-72
2023/03/10 07:23:22;;;;;;;;;;;31.60;74.70;;;;;;5043535;28;20296;-71
2023/03/10 07:25:56;;;;;;;;;;;31.10;76.20;;;;;;5043409;28;19920;-68
2023/03/10 07:28:24;;;;;;;;;;;30.60;77.40;;;;;;5044508;28;19962;-71
2023/03/10 07:30:51;;;;;;;;;;;30.00;78.20;;;;;;5045088;28;19924;-72
2023/03/10 07:33:17;;;;;;;;;;;30.10;78.30;;;;;;5044122;28;19913;-71
2023/03/10 07:35:44;;;;;;;;;;;29.40;80.40;;;;;;5042305;28;19909;-74
2023/03/10 07:38:11;;;;;;;;;;;29.00;81.50;;;;;;5044114;28;19920;-69
2023/03/10 07:40:41;;;;;;;;;;;28.30;82.80;;;;;;5044649;28;20378;-74
2023/03/10 07:43:07;;;;;;;;;;;27.50;85.50;;;;;;5043746;28;19923;-72
2023/03/10 07:45:34;;;;;;;;;;;26.90;87.50;;;;;;5044065;28;19908;-76
2023/03/10 07:48:01;;;;;;;;;;;26.60;88.70;;;;;;5041976;28;19936;-70
2023/03/10 07:50:27;;;;;;;;;;;26.30;89.80;;;;;;5045430;28;19921;-73
2023/03/10 07:52:55;;;;;;;;;;;26.10;90.40;;;;;;5043589;28;19932;-73
2023/03/10 07:55:22;;;;;;;;;;;25.90;90.60;;;;;;5050242;28;19916;-70
2023/03/10 07:57:48;;;;;;;;;;;25.60;91.00;;;;;;5048567;28;19909;-67
2023/03/10 08:00:15;;;;;;;;;;;25.40;91.40;;;;;;5043051;28;20289;-69
2023/03/10 08:02:42;;;;;;;;;;;25.40;91.80;;;;;;5042908;28;19913;-68
2023/03/10 08:05:09;;;;;;;;;;;25.30;92.00;;;;;;5043883;28;19908;-67
2023/03/10 08:07:36;;;;;;;;;;;25.20;92.40;;;;;;5046490;28;20022;-72
2023/03/10 08:10:03;;;;;;;;;;;25.20;92.60;;;;;;5043723;28;20045;-68
2023/03/10 08:12:29;;;;;;;;;;;25.10;92.90;;;;;;5047465;28;19923;-68
2023/03/10 08:14:56;;;;;;;;;;;24.90;93.20;;;;;;5045280;28;19956;-73
2023/03/10 08:17:29;;;;;;;;;;;24.90;93.30;;;;;;5047169;28;19940;-71
2023/03/10 08:19:59;;;;;;;;;;;24.90;93.30;;;;;;5045084;28;19992;-77
2023/03/10 08:22:27;;;;;;;;;;;24.80;93.60;;;;;;5046410;28;20420;-73
2023/03/10 08:24:54;;;;;;;;;;;24.80;93.70;;;;;;5044870;28;19917;-69
2023/03/10 08:27:21;;;;;;;;;;;24.70;94.10;;;;;;5046421;28;20011;-70
2023/03/10 08:29:48;;;;;;;;;;;24.70;94.40;;;;;;5046136;28;19998;-72
2023/03/10 08:32:15;;;;;;;;;;;24.60;94.60;;;;;;5044808;28;19920;-68
2023/03/10 08:34:42;;;;;;;;;;;24.60;94.50;;;;;;5045944;28;19909;-72
2023/03/10 08:37:17;;;;;;;;;;;24.60;94.80;;;;;;5054569;28;19909;-67
2023/03/10 08:39:49;;;;;;;;;;;24.60;94.60;;;;;;5050655;28;19921;-68
2023/03/10 08:42:17;;;;;;;;;;;24.50;94.90;;;;;;5041970;28;19913;-71
2023/03/10 08:44:47;;;;;;;;;;;24.50;95.00;;;;;;5044746;28;19947;-67
2023/03/10 08:47:13;;;;;;;;;;;24.50;95.30;;;;;;5049030;28;19909;-75
2023/03/10 08:49:40;;;;;;;;;;;24.40;95.50;;;;;;5045821;28;19913;-73
2023/03/10 08:52:08;;;;;;;;;;;24.40;95.60;;;;;;5043351;28;19921;-69
2023/03/10 08:54:34;;;;;;;;;;;24.40;95.90;;;;;;5046685;28;19931;-76
2023/03/10 08:57:01;;;;;;;;;;;24.40;96.00;;;;;;5043915;28;19913;-76
2023/03/10 08:59:27;;;;;;;;;;;24.30;96.20;;;;;;5045304;28;19996;-75
2023/03/10 09:01:54;;;;;;;;;;;24.30;96.50;;;;;;5045201;28;20990;-75
2023/03/10 09:04:21;;;;;;;;;;;24.30;96.70;;;;;;5045308;28;20586;-75
2023/03/10 09:06:48;;;;;;;;;;;24.30;96.90;;;;;;5045414;28;20474;-70
2023/03/10 09:09:14;;;;;;;;;;;24.30;96.90;;;;;;5044413;28;20320;-72
2023/03/10 09:11:41;;;;;;;;;;;24.30;97.10;;;;;;5044760;28;19920;-75
2023/03/10 09:14:09;;;;;;;;;;;24.30;96.60;;;;;;5045439;28;20358;-69
2023/03/10 09:16:36;;;;;;;;;;;24.20;96.80;;;;;;5045582;28;19913;-75
2023/03/10 09:19:03;;;;;;;;;;;24.20;97.00;;;;;;5043751;28;19952;-68
2023/03/10 09:21:30;;;;;;;;;;;24.20;97.20;;;;;;5045013;28;20355;-71
2023/03/10 09:23:57;;;;;;;;;;;24.20;97.10;;;;;;5043914;28;19908;-69
2023/03/10 09:26:24;;;;;;;;;;;24.20;97.20;;;;;;5046612;28;19909;-68
2023/03/10 09:28:50;;;;;;;;;;;24.20;97.30;;;;;;5046713;28;20362;-73
2023/03/10 09:31:21;;;;;;;;;;;24.20;97.30;;;;;;5043832;28;19920;-72
2023/03/10 09:33:48;;;;;;;;;;;24.10;97.40;;;;;;5045791;28;19995;-73
2023/03/10 09:36:15;;;;;;;;;;;24.10;97.60;;;;;;5044878;28;19917;-73
2023/03/10 09:38:42;;;;;;;;;;;24.10;97.70;;;;;;5045182;28;19925;-68
2023/03/10 09:41:14;;;;;;;;;;;24.00;97.90;;;;;;5044283;28;19913;-69
2023/03/10 09:43:44;;;;;;;;;;;24.10;98.10;;;;;;5043577;28;19916;-72
2023/03/10 09:46:16;;;;;;;;;;;24.10;98.10;;;;;;5042718;28;19936;-76
2023/03/10 09:48:46;;;;;;;;;;;24.10;98.20;;;;;;5044832;28;19913;-75
2023/03/10 09:51:18;;;;;;;;;;;24.10;98.20;;;;;;5042994;28;19921;-72
2023/03/10 09:53:44;;;;;;;;;;;24.10;98.20;;;;;;5043999;28;20473;-68
2023/03/10 09:56:13;;;;;;;;;;;24.10;98.20;;;;;;5043087;28;19916;-73
2023/03/10 09:58:44;;;;;;;;;;;24.10;98.30;;;;;;5044279;28;19909;-75
2023/03/10 10:01:16;;;;;;;;;;;24.10;98.40;;;;;;5043027;28;19909;-76
2023/03/10 10:03:51;;;;;;;;;;;24.10;98.60;;;;;;5044164;28;19917;-77
2023/03/10 10:06:20;;;;;;;;;;;24.00;98.70;;;;;;5043094;28;19939;-70
2023/03/10 10:08:50;;;;;;;;;;;24.00;98.90;;;;;;5045140;28;19954;-70
2023/03/10 10:11:18;;;;;;;;;;;24.00;99.00;;;;;;5042912;28;19916;-70
2023/03/10 10:13:44;;;;;;;;;;;24.00;99.20;;;;;;5042645;28;20515;-68
2023/03/10 10:16:14;;;;;;;;;;;24.00;99.70;;;;;;5042281;28;20007;-74
2023/03/10 10:18:42;;;;;;;;;;;24.00;99.50;;;;;;5044021;28;20285;-70
2023/03/10 10:21:13;;;;;;;;;;;24.00;99.60;;;;;;5044297;28;19913;-69
2023/03/10 10:23:43;;;;;;;;;;;23.90;99.70;;;;;;5044182;28;19959;-76
2023/03/10 10:26:12;;;;;;;;;;;23.90;99.90;;;;;;5043296;28;19909;-73
2023/03/10 10:28:40;;;;;;;;;;;23.90;99.90;;;;;;5043833;28;20293;-74
2023/03/10 10:31:27;;;;;;;;;;;23.90;99.90;;;;;;5043477;28;19932;-72
2023/03/10 10:33:53;;;;;;;;;;;23.80;99.90;;;;;;5042155;28;20007;-74
2023/03/10 10:36:21;;;;;;;;;;;23.90;99.90;;;;;;5042374;28;19920;-75
2023/03/10 10:38:49;;;;;;;;;;;23.90;99.90;;;;;;5043830;28;20031;-68
2023/03/10 10:41:19;;;;;;;;;;;23.90;99.90;;;;;;5043480;28;19991;-69
2023/03/10 10:43:46;;;;;;;;;;;23.90;99.90;;;;;;5041383;28;19913;-76
2023/03/10 10:46:13;;;;;;;;;;;23.80;99.90;;;;;;5042877;28;21340;-68
2023/03/10 10:48:42;;;;;;;;;;;23.80;99.90;;;;;;5041776;28;20003;-68
2023/03/10 10:51:19;;;;;;;;;;;23.80;99.90;;;;;;5043308;28;19917;-75
2023/03/10 10:53:46;;;;;;;;;;;23.80;99.90;;;;;;5041806;28;19912;-68
2023/03/10 10:56:14;;;;;;;;;;;23.80;99.90;;;;;;5043632;28;19913;-74
2023/03/10 10:58:42;;;;;;;;;;;23.80;99.90;;;;;;5044317;28;20250;-70
2023/03/10 11:01:13;;;;;;;;;;;23.80;99.90;;;;;;5043781;28;19909;-76
2023/03/10 11:03:45;;;;;;;;;;;23.80;99.90;;;;;;5043687;28;19943;-76
2023/03/10 11:06:21;;;;;;;;;;;23.80;99.90;;;;;;5042690;28;19920;-72
2023/03/10 11:08:51;;;;;;;;;;;23.80;99.90;;;;;;5043377;28;19909;-73
2023/03/10 11:11:28;;;;;;;;;;;23.80;99.90;;;;;;5045435;28;19921;-71
2023/03/10 11:13:58;;;;;;;;;;;23.70;99.90;;;;;;5041308;28;19982;-68
2023/03/10 11:16:28;;;;;;;;;;;23.70;99.90;;;;;;5044910;28;19916;-73
2023/03/10 11:19:20;;;;;;;;;;;23.70;99.90;;;;;;5041523;28;19996;-74
2023/03/10 11:21:50;;;;;;;;;;;23.80;99.90;;;;;;5043490;28;19955;-69
2023/03/10 11:24:30;;;;;;;;;;;23.70;99.90;;;;;;5043848;28;19909;-73
2023/03/10 11:26:59;;;;;;;;;;;23.70;99.90;;;;;;5041413;28;19909;-68
2023/03/10 11:29:25;;;;;;;;;;;23.70;99.90;;;;;;5041769;28;19913;-67
2023/03/10 11:31:58;;;;;;;;;;;23.70;99.90;;;;;;5041036;28;19920;-67
2023/03/10 11:34:32;;;;;;;;;;;23.70;99.90;;;;;;5042416;28;19909;-66
2023/03/10 11:37:08;;;;;;;;;;;23.70;99.90;;;;;;5040697;28;20273;-70
2023/03/10 11:39:40;;;;;;;;;;;23.70;99.90;;;;;;5043612;28;19974;-67
2023/03/10 11:42:21;;;;;;;;;;;23.70;99.90;;;;;;5045665;28;20005;-69
2023/03/10 11:44:59;;;;;;;;;;;23.70;99.90;;;;;;5047675;28;20012;-68
2023/03/10 11:47:26;;;;;;;;;;;23.60;99.90;;;;;;5047326;28;19936;-69
2023/03/10 11:50:03;;;;;;;;;;;23.70;99.90;;;;;;5045686;28;19916;-68
2023/03/10 11:52:31;;;;;;;;;;;23.70;99.90;;;;;;5057950;28;19939;-72
2023/03/10 11:55:01;;;;;;;;;;;23.70;99.90;;;;;;5046458;28;19909;-74
2023/03/10 11:57:30;;;;;;;;;;;23.70;99.90;;;;;;5047340;28;19912;-67
2023/03/10 11:59:59;;;;;;;;;;;23.60;99.90;;;;;;5025109;28;19932;-68
2023/03/10 12:02:43;;;;;;;;;;;23.60;99.90;;;;;;5027261;28;19916;-68
2023/03/10 12:05:10;;;;;;;;;;;23.60;99.90;;;;;;5024928;28;19936;-72
2023/03/10 12:07:42;;;;;;;;;;;23.60;99.90;;;;;;5027989;28;19955;-69
2023/03/10 12:10:11;;;;;;;;;;;23.60;99.90;;;;;;5044474;28;20456;-68
2023/03/10 12:12:40;;;;;;;;;;;23.60;99.90;;;;;;5046135;28;19946;-72
2023/03/10 12:15:31;;;;;;;;;;;23.60;99.90;;;;;;5044549;28;20383;-67
2023/03/10 12:17:58;;;;;;;;;;;23.60;99.90;;;;;;5041518;28;19958;-67
2023/03/10 12:20:26;;;;;;;;;;;23.60;99.90;;;;;;5041286;28;20123;-70
2023/03/10 12:22:54;;;;;;;;;;;23.50;99.90;;;;;;5031546;28;20362;-69
2023/03/10 12:25:31;;;;;;;;;;;23.50;99.90;;;;;;5063655;28;19913;-70
2023/03/10 12:28:19;;;;;;;;;;;23.50;99.90;;;;;;5035605;28;19988;-67
2023/03/10 12:30:56;;;;;;;;;;;23.50;99.90;;;;;;5043763;28;20325;-67
2023/03/10 12:33:41;;;;;;;;;;;23.40;99.90;;;;;;5046075;28;20091;-72
2023/03/10 12:36:31;;;;;;;;;;;23.50;99.90;;;;;;5037377;28;19917;-69
2023/03/10 12:39:24;;;;;;;;;;;23.50;99.90;;;;;;5044496;28;20360;-69
2023/03/10 12:41:52;;;;;;;;;;;23.50;99.90;;;;;;5044389;28;20105;-67
2023/03/10 12:44:36;;;;;;;;;;;23.50;99.90;;;;;;5044177;28;19923;-68
2023/03/10 12:47:15;;;;;;;;;;;23.50;99.90;;;;;;5044141;28;19913;-67
2023/03/10 12:49:42;;;;;;;;;;;23.40;99.90;;;;;;5055343;28;20336;-71
2023/03/10 12:52:17;;;;;;;;;;;23.40;99.90;;;;;;5051359;28;19927;-74
2023/03/10 12:54:44;;;;;;;;;;;23.40;99.90;;;;;;5034117;28;19913;-67
2023/03/10 12:57:30;;;;;;;;;;;23.40;99.90;;;;;;5040996;28;19919;-73
2023/03/10 12:59:59;;;;;;;;;;;23.40;99.90;;;;;;5043604;28;20057;-70
2023/03/10 13:02:32;;;;;;;;;;;23.30;99.90;;;;;;5043777;28;19908;-76
2023/03/10 13:05:02;;;;;;;;;;;23.40;99.90;;;;;;5045241;28;20284;-71
2023/03/10 13:07:29;;;;;;;;;;;23.30;99.90;;;;;;5043661;28;20401;-73
2023/03/10 13:09:57;;;;;;;;;;;23.30;99.90;;;;;;5044124;28;20366;-73
2023/03/10 13:12:42;;;;;;;;;;;23.30;99.90;;;;;;5042850;28;20369;-71
2023/03/10 13:15:19;;;;;;;;;;;23.30;99.90;;;;;;5043076;28;19963;-69
2023/03/10 13:17:46;;;;;;;;;;;23.30;99.90;;;;;;5044349;28;19964;-75
2023/03/10 13:20:19;;;;;;;;;;;23.30;99.90;;;;;;5042729;28;19912;-67
2023/03/10 13:22:52;;;;;;;;;;;23.30;99.90;;;;;;5044604;28;20354;-67
2023/03/10 13:25:19;;;;;;;;;;;23.30;99.90;;;;;;5042518;28;19917;-67
2023/03/10 13:27:45;;;;;;;;;;;23.30;99.90;;;;;;5044007;28;19921;-68
2023/03/10 13:30:15;;;;;;;;;;;23.30;99.90;;;;;;5042245;28;20381;-71
2023/03/10 13:32:51;;;;;;;;;;;23.20;99.90;;;;;;5044720;28;19924;-76
2023/03/10 13:35:22;;;;;;;;;;;23.20;99.90;;;;;;5042854;28;19959;-75
2023/03/10 13:38:04;;;;;;;;;;;23.20;99.90;;;;;;5042442;28;19912;-77
2023/03/10 13:40:30;;;;;;;;;;;23.20;99.90;;;;;;5023147;28;19955;-76
2023/03/10 13:42:57;;;;;;;;;;;23.10;99.90;;;;;;5033100;28;19909;-69
2023/03/10 13:45:32;;;;;;;;;;;23.10;99.90;;;;;;5030556;28;19913;-67
2023/03/10 13:48:05;;;;;;;;;;;23.10;99.90;;;;;;5029303;28;19964;-69
2023/03/10 13:50:32;;;;;;;;;;;23.10;99.90;;;;;;5039742;28;20423;-68
2023/03/10 13:52:59;;;;;;;;;;;23.10;99.90;;;;;;5041416;28;20050;-68
2023/03/10 13:55:27;;;;;;;;;;;23.10;99.90;;;;;;5034912;28;19913;-66
2023/03/10 13:57:54;;;;;;;;;;;23.00;99.90;;;;;;5038206;28;19909;-68
2023/03/10 14:00:22;;;;;;;;;;;23.00;99.90;;;;;;5040179;28;19913;-68
2023/03/10 14:02:50;;;;;;;;;;;23.00;99.90;;;;;;5025836;28;20251;-70
2023/03/10 14:05:35;;;;;;;;;;;23.00;99.90;;;;;;5038874;28;20263;-69
2023/03/10 14:08:01;;;;;;;;;;;23.00;99.90;;;;;;5034324;28;19917;-67
2023/03/10 14:10:28;;;;;;;;;;;23.00;99.90;;;;;;5032321;28;19912;-76
2023/03/10 14:12:55;;;;;;;;;;;23.00;99.90;;;;;;5044529;28;20331;-70
2023/03/10 14:15:24;;;;;;;;;;;23.00;99.90;;;;;;5041265;28;20213;-69
2023/03/10 14:18:06;;;;;;;;;;;23.00;99.90;;;;;;5042793;28;19916;-70
2023/03/10 14:20:38;;;;;;;;;;;22.90;99.90;;;;;;5041203;28;19916;-71
2023/03/10 14:23:25;;;;;;;;;;;22.90;99.90;;;;;;5044007;28;20043;-71
2023/03/10 14:25:52;;;;;;;;;;;22.90;99.90;;;;;;5043637;28;19917;-66